Nellis Air Force Base
KLSV : now visible

Aeroporto :











RITROVATECI SU...

 
LOGIN :

Iscrizione | Disclaimer

   EN    FR    IT 

 









Sommario :    VFR   VFR Marginale   IFR   IFR Intensivo   IFR Molto Intensivo
Visibilità : 
Base nubi : 
>= 8 km
>= 3000ft
5 / 8 km
1000 / 3000 ft
1500m / 5 km
500 / 1000 ft
800 / 1500m
200 / 500 ft
< 800m
< 200 ft
Simboli :   Temporali  Nebbia  Neve Forte  Precipitazioni Forti  Vento > 20 kt






- Altitudine del aeroporto : 1870 ft


KLSV - Nellis Air Force Base

ULTIMO METAR :
  • 272158Z AUTO 04004KT 10SM CLR 19/M05 A3017 RMK AO2 SLP210 T01881047 $

METARs OBSOLETI :
  • 272058Z AUTO 00000KT 10SM CLR 18/M03 A3019 RMK AO2 SLP217 T01791035 $

TAF AMD TAF KLSV
Valido dal 27 a 21 ore il 28 a 21 ore UTC


272115Z 2721/2821 35006KT 9999 FEW240 QNH3018INS
BECMG 2721/2722 02010KT 9999 FEW250 QNH3015INS
BECMG 2802/2803 06005KT 9999 SKC QNH3018INS TX19/2723Z TN06/2815Z



MetMap, La meteo Aeronautica in un colpo d'occhio ! - Copyright ORBIFLY Dicembre 2007 - Disclaimer

ORBIFLY MET'MAP TEAM :

Programmazione e sviluppo : Alexandra Zaïnal
Concezione : Baudouin d'Aumeries
Aiuto per la programmazione : Marc-Olivier Méhu
Supporto tecnico e logistico : Manuel Goepfert
Aiuto per la traduzione : Arnaldo La Scala

Contatto : metmap@orbifly.com




FONTI E CREDITI :

   NOAA       Earth
Advisory